Bobcaygeon, Canada
Current Conditions -  °F | °C
As of 10:00 AM on Thursday 23 Oct 2014 (Local Time) from CYPQ Reporting Station
Clear Clear  
Wind Chill: 52°   Ceiling: Unl
Heat Index: 52°   Visibility: 9mi
Dew Point: 39°   Wind: 9mph
Humidity: 62%   Direction: 20°NNE
Pressure: 30.14"   Gusts: NA
Location:  44.53°N, 78.55°W
Report Text: CYPQ 231400Z AUTO 02008KT 9SM CLR 11/04 A3014 RMK SLP210
Loading
Personal Weather Stations






























Interactive Weather Map
Tropical Storm Tracking
New forecast layout! Learn more

10-Day Weather Forecast

Advertisements
Track Severe Weather on mobile